Time;durP1;ratioP1;P1;durP2;ratioP2;P2;SDS_P1;SDS_P2;PMS_P1;PMS_P2;Temp;Humidity;BMP_temperature;BMP_pressure;BME280_temperature;BME280_humidity;BME280_pressure;Samples;Min_cycle;Max_cycle;Signal;HPM_P1;HPM_P2
2022/06/22 00:02:04;;;;;;;2.93;1.87;;;;;;;;;;5055752;28;20187;-87
2022/06/22 00:04:32;;;;;;;2.20;2.00;;;;;;;;;;5039058;28;20240;-89
2022/06/22 00:07:03;;;;;;;3.47;2.23;;;;;;;;;;5033767;28;20209;-90
2022/06/22 00:09:31;;;;;;;3.80;1.90;;;;;;;;;;5033427;28;20242;-90
2022/06/22 00:12:00;;;;;;;4.60;2.30;;;;;;;;;;5034031;28;20226;-90
2022/06/22 00:14:29;;;;;;;2.00;1.90;;;;;;;;;;5032844;28;20242;-88
2022/06/22 00:16:57;;;;;;;2.47;2.00;;;;;;;;;;5033486;28;20675;-89
2022/06/22 00:19:28;;;;;;;2.80;1.80;;;;;;;;;;5032885;28;20314;-90
2022/06/22 00:21:55;;;;;;;7.53;2.37;;;;;;;;;;5033239;28;20203;-89
2022/06/22 00:24:35;;;;;;;2.80;2.30;;;;;;;;;;5032943;28;20245;-90
2022/06/22 00:27:14;;;;;;;2.57;2.17;;;;;;;;;;5033465;28;20194;-89
2022/06/22 00:29:42;;;;;;;2.00;1.80;;;;;;;;;;5032525;28;20238;-88
2022/06/22 00:32:17;;;;;;;2.23;1.97;;;;;;;;;;5033361;28;20230;-90
2022/06/22 00:34:44;;;;;;;2.87;2.13;;;;;;;;;;5032950;28;20234;-89
2022/06/22 00:37:16;;;;;;;4.90;2.60;;;;;;;;;;5033554;28;20207;-89
2022/06/22 00:39:45;;;;;;;2.40;2.20;;;;;;;;;;5032919;28;20652;-89
2022/06/22 00:42:30;;;;;;;2.20;2.00;;;;;;;;;;5034388;28;20576;-89
2022/06/22 00:45:01;;;;;;;3.50;2.10;;;;;;;;;;5038010;28;20234;-89
2022/06/22 00:47:30;;;;;;;2.20;2.00;;;;;;;;;;5033679;28;20191;-89
2022/06/22 00:49:58;;;;;;;2.30;2.10;;;;;;;;;;5033185;28;20235;-90
2022/06/22 00:52:27;;;;;;;3.57;2.10;;;;;;;;;;5034343;28;20235;-89
2022/06/22 00:54:54;;;;;;;2.07;1.83;;;;;;;;;;5034130;28;20245;-91
2022/06/22 00:57:24;;;;;;;2.87;2.17;;;;;;;;;;5034408;28;20203;-89
2022/06/22 00:59:53;;;;;;;4.77;2.20;;;;;;;;;;5043817;28;20231;-87
2022/06/22 01:02:26;;;;;;;2.17;1.97;;;;;;;;;;5053417;28;20208;-89
2022/06/22 01:04:56;;;;;;;2.50;2.10;;;;;;;;;;5032807;28;20235;-89
2022/06/22 01:07:25;;;;;;;2.83;2.57;;;;;;;;;;5032473;28;20207;-90
2022/06/22 01:09:56;;;;;;;2.20;2.00;;;;;;;;;;5013841;28;20246;-89
2022/06/22 01:12:26;;;;;;;4.87;2.33;;;;;;;;;;5017996;28;20211;-90
2022/06/22 01:15:04;;;;;;;3.50;2.23;;;;;;;;;;5019378;28;20242;-89
2022/06/22 01:17:34;;;;;;;2.30;2.10;;;;;;;;;;5017581;28;20552;-90
2022/06/22 01:20:04;;;;;;;3.57;2.30;;;;;;;;;;5014821;28;20235;-90
2022/06/22 01:22:39;;;;;;;3.33;2.47;;;;;;;;;;5026077;28;20211;-88
2022/06/22 01:25:13;;;;;;;3.30;2.23;;;;;;;;;;5029831;28;20229;-89
2022/06/22 01:27:42;;;;;;;2.33;2.13;;;;;;;;;;5042853;28;20198;-90
2022/06/22 01:30:20;;;;;;;3.33;2.23;;;;;;;;;;5039779;28;20624;-90
2022/06/22 01:32:47;;;;;;;2.80;2.37;;;;;;;;;;5041666;28;20230;-89
2022/06/22 01:35:16;;;;;;;5.13;2.20;;;;;;;;;;5039655;28;20337;-90
2022/06/22 01:37:44;;;;;;;2.47;2.37;;;;;;;;;;5033059;28;20211;-90
2022/06/22 01:40:14;;;;;;;2.83;2.10;;;;;;;;;;5031921;28;20245;-89
2022/06/22 01:42:45;;;;;;;2.37;2.17;;;;;;;;;;5034176;28;20496;-90
2022/06/22 01:45:15;;;;;;;3.37;2.30;;;;;;;;;;5035344;28;20245;-90
2022/06/22 01:47:43;;;;;;;2.13;2.03;;;;;;;;;;5036295;28;20298;-89
2022/06/22 01:50:15;;;;;;;2.67;2.37;;;;;;;;;;5035566;28;20246;-88
2022/06/22 01:52:46;;;;;;;4.77;2.10;;;;;;;;;;5038460;28;20227;-90
2022/06/22 01:55:17;;;;;;;2.33;2.03;;;;;;;;;;5035435;28;20234;-90
2022/06/22 01:57:48;;;;;;;3.13;2.13;;;;;;;;;;5035971;28;20191;-90
2022/06/22 02:00:16;;;;;;;2.50;2.30;;;;;;;;;;5035449;28;20699;-91
2022/06/22 02:02:44;;;;;;;3.73;2.47;;;;;;;;;;5036245;28;20210;-90
2022/06/22 02:05:15;;;;;;;3.00;2.20;;;;;;;;;;5035280;28;20230;-90
2022/06/22 02:07:46;;;;;;;2.30;2.20;;;;;;;;;;5036391;28;20659;-90
2022/06/22 02:10:31;;;;;;;2.63;2.20;;;;;;;;;;5035385;28;20292;-90
2022/06/22 02:13:06;;;;;;;2.50;2.30;;;;;;;;;;5035422;28;20223;-90
2022/06/22 02:15:45;;;;;;;3.17;2.67;;;;;;;;;;5035348;28;20716;-90
2022/06/22 02:18:14;;;;;;;3.43;2.40;;;;;;;;;;5035887;28;20242;-90
2022/06/22 02:20:41;;;;;;;2.57;2.33;;;;;;;;;;5035349;28;20234;-89
2022/06/22 02:23:17;;;;;;;2.83;2.63;;;;;;;;;;5035794;28;20211;-89
2022/06/22 02:25:48;;;;;;;2.87;2.37;;;;;;;;;;5035551;28;20253;-90
2022/06/22 02:28:17;;;;;;;3.00;2.53;;;;;;;;;;5035852;28;20265;-90
2022/06/22 02:30:44;;;;;;;3.40;2.37;;;;;;;;;;5035467;28;20239;-90
2022/06/22 02:33:12;;;;;;;2.60;2.40;;;;;;;;;;5035614;28;20254;-90
2022/06/22 02:35:41;;;;;;;5.33;2.50;;;;;;;;;;5035219;28;20246;-90
2022/06/22 02:38:10;;;;;;;2.23;2.13;;;;;;;;;;5035629;28;20584;-90
2022/06/22 02:46:10;;;;;;;2.50;2.30;;;;;;;;;;5035071;28;20241;-88
2022/06/22 02:48:37;;;;;;;2.90;2.70;;;;;;;;;;5035295;28;20231;-90
2022/06/22 02:51:09;;;;;;;6.30;2.60;;;;;;;;;;5034821;28;20230;-90
2022/06/22 02:53:37;;;;;;;7.43;2.70;;;;;;;;;;5035064;28;20226;-89
2022/06/22 02:56:06;;;;;;;3.70;2.43;;;;;;;;;;5035339;28;20234;-90
2022/06/22 02:58:36;;;;;;;4.30;2.50;;;;;;;;;;5035034;28;20706;-89
2022/06/22 03:01:06;;;;;;;5.03;2.63;;;;;;;;;;5035136;28;20257;-88
2022/06/22 03:03:34;;;;;;;2.80;2.60;;;;;;;;;;5035149;28;20187;-88
2022/06/22 03:06:02;;;;;;;3.77;3.07;;;;;;;;;;5034189;28;20238;-88
2022/06/22 03:08:29;;;;;;;3.23;2.90;;;;;;;;;;5035504;28;20223;-88
2022/06/22 03:10:59;;;;;;;3.67;2.67;;;;;;;;;;5034718;28;20234;-88
2022/06/22 03:13:28;;;;;;;3.47;2.43;;;;;;;;;;5045829;28;20252;-88
2022/06/22 03:15:57;;;;;;;2.63;2.27;;;;;;;;;;5049559;28;20718;-88
2022/06/22 03:18:26;;;;;;;3.37;2.40;;;;;;;;;;5039614;28;20230;-88
2022/06/22 03:20:54;;;;;;;2.80;2.60;;;;;;;;;;5034271;28;20238;-88
2022/06/22 03:23:24;;;;;;;2.77;2.50;;;;;;;;;;5034941;28;20607;-88
2022/06/22 03:25:53;;;;;;;6.20;2.80;;;;;;;;;;5034330;28;20715;-87
2022/06/22 03:28:21;;;;;;;5.80;2.60;;;;;;;;;;5035203;28;20223;-88
2022/06/22 03:30:52;;;;;;;3.90;2.60;;;;;;;;;;5034665;28;20230;-88
2022/06/22 03:33:23;;;;;;;4.30;2.80;;;;;;;;;;5035226;28;20215;-88
2022/06/22 03:35:54;;;;;;;6.03;2.80;;;;;;;;;;5034809;28;20242;-89
2022/06/22 03:38:23;;;;;;;3.10;2.80;;;;;;;;;;5044904;28;20227;-90
2022/06/22 03:40:52;;;;;;;2.87;2.63;;;;;;;;;;5058018;28;20286;-90
2022/06/22 03:43:22;;;;;;;4.73;2.83;;;;;;;;;;5058373;28;20231;-90
2022/06/22 03:45:51;;;;;;;4.00;2.70;;;;;;;;;;5057742;28;20234;-89
2022/06/22 03:48:21;;;;;;;3.70;2.60;;;;;;;;;;5058074;28;20233;-90
2022/06/22 03:50:52;;;;;;;3.40;2.87;;;;;;;;;;5058152;28;20210;-90
2022/06/22 03:53:22;;;;;;;2.80;2.60;;;;;;;;;;5057699;28;20232;-90
2022/06/22 03:55:51;;;;;;;4.07;2.90;;;;;;;;;;5056721;28;20230;-88
2022/06/22 03:58:20;;;;;;;4.63;3.13;;;;;;;;;;5056118;28;20306;-88
2022/06/22 04:00:48;;;;;;;3.37;2.60;;;;;;;;;;5045159;28;20238;-88
2022/06/22 04:03:17;;;;;;;3.40;2.80;;;;;;;;;;5037448;28;20573;-89
2022/06/22 04:05:45;;;;;;;6.83;4.87;;;;;;;;;;5034818;28;20242;-89
2022/06/22 04:08:25;;;;;;;2.83;2.53;;;;;;;;;;5034995;28;20321;-88
2022/06/22 04:10:54;;;;;;;2.60;2.40;;;;;;;;;;5033461;28;20706;-88
2022/06/22 04:13:25;;;;;;;2.93;2.60;;;;;;;;;;5033668;28;20229;-88
2022/06/22 04:15:54;;;;;;;3.40;3.10;;;;;;;;;;5033638;28;20761;-87
2022/06/22 04:18:23;;;;;;;3.00;2.70;;;;;;;;;;5033972;28;20223;-88
2022/06/22 04:20:52;;;;;;;3.27;2.97;;;;;;;;;;5033030;28;20257;-88
2022/06/22 04:23:24;;;;;;;2.93;2.73;;;;;;;;;;5033605;28;20218;-88
2022/06/22 04:25:51;;;;;;;3.13;2.90;;;;;;;;;;5033539;28;20230;-89
2022/06/22 04:28:19;;;;;;;3.63;3.20;;;;;;;;;;5033602;28;20589;-87
2022/06/22 04:30:48;;;;;;;4.80;3.40;;;;;;;;;;5033131;28;20245;-88
2022/06/22 04:33:17;;;;;;;3.43;3.23;;;;;;;;;;5033247;28;20230;-87
2022/06/22 04:35:46;;;;;;;4.00;3.40;;;;;;;;;;5032789;28;20230;-88
2022/06/22 04:38:16;;;;;;;6.30;3.27;;;;;;;;;;5033698;28;20235;-88
2022/06/22 04:40:48;;;;;;;6.23;3.33;;;;;;;;;;5033104;28;20238;-88
2022/06/22 04:43:16;;;;;;;9.90;3.33;;;;;;;;;;5033416;28;20206;-88
2022/06/22 04:45:44;;;;;;;5.83;3.13;;;;;;;;;;5032801;28;20245;-89
2022/06/22 04:48:14;;;;;;;8.47;3.20;;;;;;;;;;5033591;28;20210;-89
2022/06/22 04:50:43;;;;;;;5.70;3.23;;;;;;;;;;5033066;28;20590;-88
2022/06/22 04:53:16;;;;;;;7.53;3.50;;;;;;;;;;5034010;28;20301;-89
2022/06/22 04:55:44;;;;;;;4.87;3.20;;;;;;;;;;5032619;28;20246;-88
2022/06/22 04:58:20;;;;;;;6.07;3.50;;;;;;;;;;5033185;28;20207;-89
2022/06/22 05:00:48;;;;;;;4.37;3.37;;;;;;;;;;5032820;28;20234;-89
2022/06/22 05:03:15;;;;;;;4.20;3.23;;;;;;;;;;5033364;28;20206;-89
2022/06/22 05:05:42;;;;;;;7.73;3.83;;;;;;;;;;5032550;28;20242;-89
2022/06/22 05:08:13;;;;;;;5.23;3.30;;;;;;;;;;5032559;28;20671;-88
2022/06/22 05:10:43;;;;;;;3.67;3.07;;;;;;;;;;5033203;28;20241;-84
2022/06/22 05:13:16;;;;;;;3.80;3.50;;;;;;;;;;5032342;28;20234;-85
2022/06/22 05:15:44;;;;;;;3.70;3.40;;;;;;;;;;5032173;28;20296;-84
2022/06/22 05:18:13;;;;;;;6.73;3.70;;;;;;;;;;5035780;28;20206;-84
2022/06/22 05:20:44;;;;;;;7.10;4.57;;;;;;;;;;5036144;28;20235;-85
2022/06/22 05:23:11;;;;;;;7.13;3.50;;;;;;;;;;5036430;28;20187;-85
2022/06/22 05:25:38;;;;;;;5.30;3.70;;;;;;;;;;5035730;28;20230;-85
2022/06/22 05:28:07;;;;;;;4.30;3.23;;;;;;;;;;5036426;28;20210;-84
2022/06/22 05:30:39;;;;;;;3.40;3.07;;;;;;;;;;5036261;28;20257;-84
2022/06/22 05:33:08;;;;;;;5.57;3.10;;;;;;;;;;5036319;28;20217;-85
2022/06/22 05:35:38;;;;;;;3.70;3.30;;;;;;;;;;5035840;28;20610;-84
2022/06/22 05:38:07;;;;;;;4.13;2.90;;;;;;;;;;5036501;28;20198;-84
2022/06/22 05:40:35;;;;;;;4.60;3.20;;;;;;;;;;5036806;28;20532;-84
2022/06/22 05:43:02;;;;;;;7.83;3.27;;;;;;;;;;5037040;28;20210;-84
2022/06/22 05:45:31;;;;;;;3.40;3.10;;;;;;;;;;5049489;28;20234;-86
2022/06/22 05:47:59;;;;;;;5.67;3.50;;;;;;;;;;5058797;28;20194;-86
2022/06/22 05:50:33;;;;;;;3.33;3.00;;;;;;;;;;5058496;28;20528;-85
2022/06/22 05:53:02;;;;;;;5.43;3.60;;;;;;;;;;5057800;28;20202;-85
2022/06/22 05:55:32;;;;;;;4.53;3.30;;;;;;;;;;5057850;28;20237;-84
2022/06/22 05:58:01;;;;;;;4.87;3.43;;;;;;;;;;5058448;28;20206;-86
2022/06/22 06:00:30;;;;;;;5.40;3.50;;;;;;;;;;5056578;28;20497;-86
2022/06/22 06:03:04;;;;;;;5.00;3.77;;;;;;;;;;5057790;28;20221;-85
2022/06/22 06:05:33;;;;;;;3.90;3.60;;;;;;;;;;5056765;28;20324;-87
2022/06/22 06:08:02;;;;;;;8.90;3.90;;;;;;;;;;5041497;28;20603;-85
2022/06/22 06:10:31;;;;;;;3.67;3.27;;;;;;;;;;5035330;28;20234;-86
2022/06/22 06:13:00;;;;;;;6.93;3.57;;;;;;;;;;5035778;28;20226;-85
2022/06/22 06:15:27;;;;;;;4.37;3.30;;;;;;;;;;5035077;28;20261;-85
2022/06/22 06:17:57;;;;;;;3.63;2.90;;;;;;;;;;5035920;28;20207;-85
2022/06/22 06:20:26;;;;;;;3.17;2.90;;;;;;;;;;5035463;28;20281;-85
2022/06/22 06:22:56;;;;;;;5.83;3.40;;;;;;;;;;5035932;28;20207;-86
2022/06/22 06:28:13;;;;;;;5.90;3.40;;;;;;;;;;5037119;28;20317;-85
2022/06/22 06:30:43;;;;;;;9.87;3.17;;;;;;;;;;5036190;28;20242;-85
2022/06/22 06:33:15;;;;;;;4.67;3.07;;;;;;;;;;5036285;28;20195;-86
2022/06/22 06:35:46;;;;;;;3.40;2.87;;;;;;;;;;5035208;28;20242;-85
2022/06/22 06:38:17;;;;;;;7.17;3.07;;;;;;;;;;5036113;28;20235;-85
2022/06/22 06:40:47;;;;;;;8.03;3.03;;;;;;;;;;5035701;28;20581;-86
2022/06/22 06:43:24;;;;;;;6.17;3.07;;;;;;;;;;5035676;28;20234;-85
2022/06/22 06:45:54;;;;;;;5.80;3.13;;;;;;;;;;5035560;28;20714;-85
2022/06/22 06:48:23;;;;;;;3.40;3.10;;;;;;;;;;5035786;28;20278;-85
2022/06/22 06:50:53;;;;;;;4.67;2.73;;;;;;;;;;5035427;28;20230;-85
2022/06/22 06:53:28;;;;;;;3.57;2.33;;;;;;;;;;5042914;28;20202;-85
2022/06/22 06:55:57;;;;;;;2.90;2.58;;;;;;;;;;5057547;28;20309;-87
2022/06/22 06:58:34;;;;;;;2.70;2.50;;;;;;;;;;5057386;28;20215;-86
2022/06/22 07:01:01;;;;;;;2.45;2.25;;;;;;;;;;5057045;28;20248;-88
2022/06/22 07:03:33;;;;;;;3.00;2.35;;;;;;;;;;5057116;28;20232;-87
2022/06/22 07:06:02;;;;;;;2.30;1.83;;;;;;;;;;5057091;28;20222;-87
2022/06/22 07:08:31;;;;;;;2.10;1.95;;;;;;;;;;5057288;28;20230;-89
2022/06/22 07:11:02;;;;;;;2.53;1.70;;;;;;;;;;5054795;28;20246;-86
2022/06/22 07:13:31;;;;;;;3.17;1.83;;;;;;;;;;5050257;28;20199;-85
2022/06/22 07:15:59;;;;;;;2.38;2.20;;;;;;;;;;5051681;28;20234;-86
2022/06/22 07:18:28;;;;;;;2.22;1.60;;;;;;;;;;5037424;28;20233;-86
2022/06/22 07:20:58;;;;;;;2.25;1.80;;;;;;;;;;5035515;28;20297;-86
2022/06/22 07:23:29;;;;;;;4.15;1.98;;;;;;;;;;5034816;28;20207;-87
2022/06/22 07:25:59;;;;;;;2.88;1.50;;;;;;;;;;5034633;28;20242;-87
2022/06/22 07:28:27;;;;;;;2.80;1.95;;;;;;;;;;5034906;28;20227;-87
2022/06/22 07:30:56;;;;;;;3.17;1.60;;;;;;;;;;5033484;28;20234;-86
2022/06/22 07:33:25;;;;;;;2.80;1.45;;;;;;;;;;5033743;28;20229;-86
2022/06/22 07:35:56;;;;;;;6.55;1.88;;;;;;;;;;5033574;28;20242;-86
2022/06/22 07:38:26;;;;;;;3.30;1.67;;;;;;;;;;5033862;28;20574;-86
2022/06/22 07:43:40;;;;;;;5.13;1.80;;;;;;;;;;5033185;28;20249;-86
2022/06/22 07:46:09;;;;;;;2.75;1.77;;;;;;;;;;5033824;28;20203;-86
2022/06/22 07:48:39;;;;;;;2.03;1.60;;;;;;;;;;5033861;28;20254;-87
2022/06/22 07:51:07;;;;;;;1.95;1.67;;;;;;;;;;5033441;28;20582;-85
2022/06/22 07:53:37;;;;;;;1.50;1.40;;;;;;;;;;5033331;28;20210;-85
2022/06/22 07:56:12;;;;;;;3.03;1.42;;;;;;;;;;5033707;28;20226;-85
2022/06/22 07:58:42;;;;;;;3.00;1.50;;;;;;;;;;5032531;28;20715;-84
2022/06/22 08:01:10;;;;;;;2.30;1.70;;;;;;;;;;5033551;28;20211;-84
2022/06/22 08:03:42;;;;;;;1.75;1.65;;;;;;;;;;5033051;28;20230;-85
2022/06/22 08:06:10;;;;;;;2.20;1.90;;;;;;;;;;5033738;28;20195;-85
2022/06/22 08:08:40;;;;;;;3.05;2.30;;;;;;;;;;5033178;28;20603;-85
2022/06/22 08:11:10;;;;;;;2.08;1.85;;;;;;;;;;5033062;28;20206;-84
2022/06/22 08:13:39;;;;;;;1.98;1.88;;;;;;;;;;5032559;28;20211;-85
2022/06/22 08:16:08;;;;;;;2.58;1.85;;;;;;;;;;5033110;28;20207;-84
2022/06/22 08:18:36;;;;;;;2.38;1.63;;;;;;;;;;5032959;28;20706;-85
2022/06/22 08:21:03;;;;;;;1.25;1.15;;;;;;;;;;5032644;28;20238;-85
2022/06/22 08:23:37;;;;;;;2.92;1.67;;;;;;;;;;5032588;28;20202;-85
2022/06/22 08:26:05;;;;;;;3.20;1.50;;;;;;;;;;5033167;28;20202;-85
2022/06/22 08:28:35;;;;;;;3.30;1.40;;;;;;;;;;5032538;28;20317;-85
2022/06/22 08:31:02;;;;;;;1.88;1.50;;;;;;;;;;5032472;28;20241;-84
2022/06/22 08:33:32;;;;;;;3.15;1.23;;;;;;;;;;5033069;28;20218;-85
2022/06/22 08:36:03;;;;;;;2.40;1.50;;;;;;;;;;5032068;28;20234;-85
2022/06/22 08:38:34;;;;;;;3.75;1.67;;;;;;;;;;5032557;28;20265;-85
2022/06/22 08:41:08;;;;;;;3.42;1.63;;;;;;;;;;5032349;28;20734;-85
2022/06/22 08:43:38;;;;;;;3.15;1.50;;;;;;;;;;5033009;28;20221;-84
2022/06/22 08:46:13;;;;;;;2.78;1.48;;;;;;;;;;5032531;28;20245;-85
2022/06/22 08:48:50;;;;;;;1.83;1.40;;;;;;;;;;5032176;28;20607;-84
2022/06/22 08:51:26;;;;;;;1.50;1.40;;;;;;;;;;5034959;28;20671;-85
2022/06/22 08:54:04;;;;;;;2.03;1.70;;;;;;;;;;5039209;28;20301;-85
2022/06/22 08:56:34;;;;;;;1.50;1.40;;;;;;;;;;5039700;28;20218;-85
2022/06/22 08:59:31;;;;;;;4.82;1.60;;;;;;;;;;5039579;28;20241;-83
2022/06/22 09:02:07;;;;;;;4.03;1.58;;;;;;;;;;5049685;28;20206;-86
2022/06/22 09:04:54;;;;;;;3.08;1.48;;;;;;;;;;5050542;28;20232;-84
2022/06/22 09:07:26;;;;;;;1.90;1.63;;;;;;;;;;5052385;28;20221;-85
2022/06/22 09:10:03;;;;;;;1.83;1.27;;;;;;;;;;5052537;28;20238;-86
2022/06/22 09:12:36;;;;;;;1.63;1.52;;;;;;;;;;5052453;28;20858;-84
2022/06/22 09:15:08;;;;;;;3.42;1.20;;;;;;;;;;5048125;28;20638;-84
2022/06/22 09:18:02;;;;;;;2.08;1.60;;;;;;;;;;5052246;28;20186;-84
2022/06/22 09:20:35;;;;;;;0.82;0.80;;;;;;;;;;5048955;28;20234;-84
2022/06/22 09:23:07;;;;;;;1.20;1.10;;;;;;;;;;5043083;28;20647;-84
2022/06/22 09:25:38;;;;;;;1.58;1.17;;;;;;;;;;5039138;28;20599;-85
2022/06/22 09:28:09;;;;;;;2.38;1.10;;;;;;;;;;5040434;28;20198;-85
2022/06/22 09:30:56;;;;;;;2.42;1.48;;;;;;;;;;5040611;28;20237;-84
2022/06/22 09:33:32;;;;;;;1.92;1.00;;;;;;;;;;5039906;28;20662;-88
2022/06/22 09:36:11;;;;;;;1.38;1.10;;;;;;;;;;5039750;28;20321;-85
2022/06/22 09:38:46;;;;;;;1.80;1.00;;;;;;;;;;5039693;28;20238;-85
2022/06/22 09:41:16;;;;;;;1.45;1.35;;;;;;;;;;5040414;28;20578;-84
2022/06/22 09:43:53;;;;;;;3.38;1.65;;;;;;;;;;5039659;28;20640;-85
2022/06/22 09:46:47;;;;;;;1.50;1.40;;;;;;;;;;5039788;28;20190;-85
2022/06/22 09:49:32;;;;;;;4.00;1.42;;;;;;;;;;4993000;28;20241;-85
2022/06/22 09:52:05;;;;;;;2.05;1.38;;;;;;;;;;5026662;28;20213;-88
2022/06/22 09:57:28;;;;;;;1.85;1.35;;;;;;;;;;4995904;28;20282;-85
2022/06/22 10:00:03;;;;;;;1.92;1.40;;;;;;;;;;5038857;28;20241;-84
2022/06/22 10:02:46;;;;;;;1.55;1.40;;;;;;;;;;5038637;28;20566;-85
2022/06/22 10:05:29;;;;;;;2.97;1.30;;;;;;;;;;5036793;28;20632;-84
2022/06/22 10:08:05;;;;;;;2.17;1.20;;;;;;;;;;5037275;28;20241;-85
2022/06/22 10:10:39;;;;;;;4.15;1.50;;;;;;;;;;5036043;28;20677;-87
2022/06/22 10:13:15;;;;;;;2.88;1.50;;;;;;;;;;5036293;28;20191;-84
2022/06/22 10:15:49;;;;;;;1.30;1.23;;;;;;;;;;5035882;28;20242;-85
2022/06/22 10:18:26;;;;;;;2.22;1.30;;;;;;;;;;5036481;28;20635;-85
2022/06/22 10:21:00;;;;;;;1.30;1.15;;;;;;;;;;5035620;28;20239;-85
2022/06/22 10:24:00;;;;;;;2.05;1.45;;;;;;;;;;5035965;28;20187;-85
2022/06/22 10:26:45;;;;;;;1.90;1.40;;;;;;;;;;4954714;29;20229;-84
2022/06/22 10:29:31;;;;;;;2.63;1.75;;;;;;;;;;4954293;28;20241;-85
2022/06/22 10:32:20;;;;;;;1.40;1.30;;;;;;;;;;5010794;28;20230;-85
2022/06/22 10:34:52;;;;;;;1.63;1.52;;;;;;;;;;5035874;28;20718;-85
2022/06/22 10:37:36;;;;;;;1.33;1.20;;;;;;;;;;5035328;28;20582;-85
2022/06/22 10:45:56;;;;;;;2.20;1.10;;;;;;;;;;5034422;28;20256;-88
2022/06/22 10:48:36;;;;;;;1.05;1.05;;;;;;;;;;5035120;28;20237;-87
2022/06/22 10:51:08;;;;;;;2.33;1.60;;;;;;;;;;5034723;28;20226;-85
2022/06/22 10:53:43;;;;;;;1.10;1.00;;;;;;;;;;5034970;28;20191;-86
2022/06/22 10:56:17;;;;;;;2.67;1.33;;;;;;;;;;5034789;28;20674;-85
2022/06/22 10:58:57;;;;;;;2.50;1.10;;;;;;;;;;5034160;28;20241;-85
2022/06/22 11:01:36;;;;;;;2.58;1.48;;;;;;;;;;5035366;28;20190;-85
2022/06/22 11:04:35;;;;;;;1.35;1.25;;;;;;;;;;5040092;28;20230;-84
2022/06/22 11:07:13;;;;;;;1.40;1.30;;;;;;;;;;5034661;28;20209;-85
2022/06/22 11:09:54;;;;;;;1.50;1.40;;;;;;;;;;5034092;28;20699;-85
2022/06/22 11:12:27;;;;;;;3.38;1.45;;;;;;;;;;5034848;28;20187;-85
2022/06/22 11:15:14;;;;;;;1.50;1.40;;;;;;;;;;5033515;28;20234;-85
2022/06/22 11:17:59;;;;;;;3.70;1.30;;;;;;;;;;5034609;28;20238;-85
2022/06/22 11:20:42;;;;;;;0.98;0.93;;;;;;;;;;5033865;28;20242;-86
2022/06/22 11:23:11;;;;;;;1.63;1.50;;;;;;;;;;5035698;28;20199;-85
2022/06/22 11:31:57;;;;;;;1.60;1.13;;;;;;;;;;5034168;28;20274;-85
2022/06/22 11:34:39;;;;;;;1.75;1.40;;;;;;;;;;5035267;28;20622;-87
2022/06/22 11:37:11;;;;;;;1.17;1.15;;;;;;;;;;5036103;28;20226;-82
2022/06/22 11:39:51;;;;;;;1.58;1.00;;;;;;;;;;5035827;28;20698;-82
2022/06/22 11:42:21;;;;;;;1.42;1.33;;;;;;;;;;5036866;28;20191;-85
2022/06/22 11:47:52;;;;;;;2.53;1.30;;;;;;;;;;5035264;28;20182;-85
2022/06/22 11:50:24;;;;;;;1.33;1.20;;;;;;;;;;5035754;28;20257;-85
2022/06/22 11:53:02;;;;;;;2.58;1.40;;;;;;;;;;5034196;28;20198;-85
2022/06/22 11:55:33;;;;;;;3.13;1.40;;;;;;;;;;5035795;28;20245;-85
2022/06/22 11:58:18;;;;;;;1.40;1.30;;;;;;;;;;5034922;28;20644;-85
2022/06/22 12:00:50;;;;;;;1.52;1.42;;;;;;;;;;5034952;28;20602;-86
2022/06/22 12:03:38;;;;;;;1.70;1.25;;;;;;;;;;5034460;28;20190;-86
2022/06/22 12:06:16;;;;;;;1.67;1.35;;;;;;;;;;5035110;28;20238;-86
2022/06/22 12:08:54;;;;;;;2.90;1.30;;;;;;;;;;5034337;28;20707;-85
2022/06/22 12:11:26;;;;;;;1.92;1.42;;;;;;;;;;5034913;28;20193;-85
2022/06/22 12:17:04;;;;;;;1.60;1.50;;;;;;;;;;5036583;28;20221;-84
2022/06/22 12:19:35;;;;;;;1.40;1.30;;;;;;;;;;5036776;28;20652;-85
2022/06/22 12:22:08;;;;;;;2.47;1.50;;;;;;;;;;5034576;28;20202;-85
2022/06/22 12:24:42;;;;;;;2.00;1.60;;;;;;;;;;5034411;28;20242;-85
2022/06/22 12:27:15;;;;;;;3.28;1.63;;;;;;;;;;5034608;28;20207;-84
2022/06/22 12:29:48;;;;;;;1.48;1.38;;;;;;;;;;5035226;28;20262;-85
2022/06/22 12:32:18;;;;;;;3.10;1.70;;;;;;;;;;5034811;28;20199;-85
2022/06/22 12:34:49;;;;;;;2.65;1.42;;;;;;;;;;5033666;28;20345;-85
2022/06/22 12:37:21;;;;;;;1.60;1.50;;;;;;;;;;5035820;28;20647;-86
2022/06/22 12:39:50;;;;;;;1.60;1.50;;;;;;;;;;5033237;28;20243;-87
2022/06/22 12:42:35;;;;;;;2.53;1.70;;;;;;;;;;5033114;28;20217;-85
2022/06/22 12:45:17;;;;;;;1.50;1.40;;;;;;;;;;5032361;28;20269;-85
2022/06/22 12:47:53;;;;;;;2.42;1.40;;;;;;;;;;5017328;28;20238;-85
2022/06/22 12:50:46;;;;;;;2.05;1.73;;;;;;;;;;5033440;28;20234;-85
2022/06/22 12:53:17;;;;;;;1.88;1.60;;;;;;;;;;5034744;28;20639;-85
2022/06/22 12:55:46;;;;;;;3.85;1.80;;;;;;;;;;5036187;28;20651;-85
2022/06/22 12:58:15;;;;;;;2.08;1.80;;;;;;;;;;5035872;28;20202;-86
2022/06/22 13:00:43;;;;;;;2.22;1.55;;;;;;;;;;5041134;28;20234;-85
2022/06/22 13:03:15;;;;;;;3.90;1.70;;;;;;;;;;5038786;28;20222;-84
2022/06/22 13:05:42;;;;;;;3.22;1.45;;;;;;;;;;5032821;28;20253;-86
2022/06/22 13:08:12;;;;;;;1.90;1.48;;;;;;;;;;5032674;28;20292;-87
2022/06/22 13:10:43;;;;;;;4.57;1.75;;;;;;;;;;5036219;28;20234;-84
2022/06/22 13:13:11;;;;;;;1.65;1.42;;;;;;;;;;5034203;28;20203;-85
2022/06/22 13:15:42;;;;;;;1.63;1.50;;;;;;;;;;5034106;28;20230;-84
2022/06/22 13:18:15;;;;;;;2.88;1.48;;;;;;;;;;5032999;28;20198;-85
2022/06/22 13:20:52;;;;;;;1.42;1.33;;;;;;;;;;5035613;28;20239;-84
2022/06/22 13:23:27;;;;;;;2.33;1.55;;;;;;;;;;5035679;28;20197;-84
2022/06/22 13:25:58;;;;;;;2.78;1.85;;;;;;;;;;5033423;28;20257;-85
2022/06/22 13:28:30;;;;;;;1.60;1.50;;;;;;;;;;5033295;28;20406;-85
2022/06/22 13:30:58;;;;;;;3.17;1.55;;;;;;;;;;5033561;28;20582;-85
2022/06/22 13:33:27;;;;;;;4.60;1.70;;;;;;;;;;5034222;28;20698;-84
2022/06/22 13:35:58;;;;;;;1.90;1.63;;;;;;;;;;5037069;28;20638;-85
2022/06/22 13:38:30;;;;;;;5.70;1.80;;;;;;;;;;5039527;28;20238;-85
2022/06/22 13:41:10;;;;;;;1.88;1.55;;;;;;;;;;5037959;28;20609;-84
2022/06/22 13:43:47;;;;;;;2.13;1.80;;;;;;;;;;5042672;28;20187;-85
2022/06/22 13:46:22;;;;;;;2.13;1.80;;;;;;;;;;5043814;28;20191;-84
2022/06/22 13:48:53;;;;;;;1.77;1.63;;;;;;;;;;5043073;28;20226;-85
2022/06/22 13:51:34;;;;;;;2.17;1.63;;;;;;;;;;5044256;28;20191;-84
2022/06/22 13:54:31;;;;;;;2.47;1.70;;;;;;;;;;5044483;28;20241;-85
2022/06/22 13:57:04;;;;;;;2.03;1.85;;;;;;;;;;5045632;28;20211;-84
2022/06/22 13:59:35;;;;;;;3.00;1.80;;;;;;;;;;5047406;28;20246;-83
2022/06/22 14:02:07;;;;;;;1.95;1.85;;;;;;;;;;5047088;28;20202;-84
2022/06/22 14:04:37;;;;;;;4.53;1.85;;;;;;;;;;5048129;28;20237;-86
2022/06/22 14:07:06;;;;;;;2.33;1.90;;;;;;;;;;5044279;28;20320;-85
2022/06/22 14:09:37;;;;;;;4.82;2.13;;;;;;;;;;5044772;28;20249;-85
2022/06/22 14:12:09;;;;;;;2.53;1.88;;;;;;;;;;5048278;28;20207;-85
2022/06/22 14:14:43;;;;;;;3.22;1.90;;;;;;;;;;5046194;28;20246;-84
2022/06/22 14:17:11;;;;;;;3.42;1.90;;;;;;;;;;5048596;28;20219;-83
2022/06/22 14:19:42;;;;;;;4.85;1.90;;;;;;;;;;5046556;28;20242;-83
2022/06/22 14:22:19;;;;;;;4.68;1.70;;;;;;;;;;5044832;28;20209;-84
2022/06/22 14:24:46;;;;;;;2.10;1.70;;;;;;;;;;5043117;28;20239;-82
2022/06/22 14:27:29;;;;;;;5.25;2.17;;;;;;;;;;5046496;28;20206;-84
2022/06/22 14:30:04;;;;;;;5.88;2.00;;;;;;;;;;5041566;28;20242;-85
2022/06/22 14:32:39;;;;;;;2.67;2.05;;;;;;;;;;5045030;28;20210;-86
2022/06/22 14:35:13;;;;;;;3.47;2.33;;;;;;;;;;5041815;28;20234;-85
2022/06/22 14:37:43;;;;;;;7.22;2.35;;;;;;;;;;5044699;28;20215;-84
2022/06/22 14:40:13;;;;;;;6.65;2.20;;;;;;;;;;5044510;28;20245;-84
2022/06/22 14:42:47;;;;;;;4.63;1.80;;;;;;;;;;5045899;28;20213;-86
2022/06/22 14:45:18;;;;;;;5.45;2.60;;;;;;;;;;5044273;28;20234;-84
2022/06/22 14:47:48;;;;;;;2.85;2.38;;;;;;;;;;5045370;28;20194;-82
2022/06/22 14:50:19;;;;;;;4.70;2.33;;;;;;;;;;5043348;28;20238;-83
2022/06/22 14:52:52;;;;;;;5.55;2.42;;;;;;;;;;5044607;28;20194;-86
2022/06/22 14:55:27;;;;;;;4.53;2.55;;;;;;;;;;5057004;28;20270;-85
2022/06/22 14:58:01;;;;;;;3.85;2.28;;;;;;;;;;5055828;28;20245;-89
2022/06/22 15:00:34;;;;;;;4.10;2.45;;;;;;;;;;5057938;22;20231;-79
2022/06/22 15:03:05;;;;;;;4.03;2.58;;;;;;;;;;5026472;28;20253;-79
2022/06/22 15:05:35;;;;;;;3.85;2.67;;;;;;;;;;5036762;28;20234;-80
2022/06/22 15:08:05;;;;;;;3.00;2.58;;;;;;;;;;5036263;28;20206;-79
2022/06/22 15:10:37;;;;;;;4.55;2.58;;;;;;;;;;5035666;28;20245;-79
2022/06/22 15:13:08;;;;;;;7.45;3.03;;;;;;;;;;5035621;28;20223;-79
2022/06/22 15:15:43;;;;;;;7.22;3.88;;;;;;;;;;5035651;28;20235;-78
2022/06/22 15:18:21;;;;;;;5.45;3.00;;;;;;;;;;5035535;28;20214;-79
2022/06/22 15:20:52;;;;;;;6.47;3.83;;;;;;;;;;5035753;28;20253;-79
2022/06/22 15:23:21;;;;;;;5.15;3.70;;;;;;;;;;5035080;28;20203;-78
2022/06/22 15:25:52;;;;;;;4.60;3.90;;;;;;;;;;5035581;28;20721;-79
2022/06/22 15:28:24;;;;;;;4.38;2.42;;;;;;;;;;5035699;28;20207;-79
2022/06/22 15:30:54;;;;;;;3.38;2.80;;;;;;;;;;5035035;28;20317;-79
2022/06/22 15:33:23;;;;;;;6.68;2.75;;;;;;;;;;5034864;28;20214;-79
2022/06/22 15:35:54;;;;;;;3.80;3.05;;;;;;;;;;5034935;28;20231;-79
2022/06/22 15:38:27;;;;;;;8.20;3.40;;;;;;;;;;5035285;28;20220;-80
2022/06/22 15:40:57;;;;;;;3.42;2.70;;;;;;;;;;5034796;28;20242;-79
2022/06/22 15:43:45;;;;;;;4.10;2.92;;;;;;;;;;5034983;28;20211;-79
2022/06/22 15:46:25;;;;;;;4.07;2.58;;;;;;;;;;5028171;28;20226;-79